This is the latest recevied weather packets stored in our database for station/object KK6LZB. If no packets are shown the sender has not sent any weather packets the latest 10 day(s).
| Time | Temp. | Humidity | Pressure | Rain* | Wind** | Luminosity | Snow |
|---|---|---|---|---|---|---|---|
| 1777596686 | 19.44° C | 77% | 1013.7 hPa | 0 mm | - | 135 W/m² | - |
| 1777596383 | 19.44° C | 76% | 1013.7 hPa | 0 mm | - | 149 W/m² | - |
| 1777596080 | 18.89° C | 77% | 1013.6 hPa | 0 mm | - | 159 W/m² | - |
| 1777595775 | 20° C | 76% | 1013.6 hPa | 0 mm | - | 175 W/m² | - |
| 1777595471 | 18.89° C | 77% | 1013.6 hPa | 0 mm | - | 187 W/m² | - |
| 1777595168 | 18.89° C | 79% | 1013.4 hPa | 0 mm | - | 199 W/m² | - |
| 1777594864 | 19.44° C | 77% | 1013.7 hPa | 0 mm | - | 198 W/m² | - |
| 1777594560 | 19.44° C | 75% | 1013.6 hPa | 0 mm | - | 206 W/m² | - |
| 1777594256 | 19.44° C | 76% | 1013.7 hPa | 0 mm | - | 234 W/m² | - |
| 1777593952 | 19.44° C | 76% | 1013.6 hPa | 0 mm | - | 267 W/m² | - |
| 1777593649 | 18.89° C | 78% | 1013.5 hPa | 0 mm | - | 280 W/m² | - |
| 1777593345 | 18.89° C | 78% | 1013.7 hPa | 0 mm | - | 169 W/m² | - |
| 1777593044 | 19.44° C | 79% | 1013.7 hPa | 0 mm | - | 304 W/m² | - |
| 1777592743 | 18.89° C | 79% | 1013.6 hPa | 0 mm | - | 143 W/m² | - |
| 1777592439 | 20.56° C | 75% | 1013.4 hPa | 0 mm | - | 343 W/m² | - |
| 1777592135 | 20° C | 77% | 1013.6 hPa | 0 mm | - | 365 W/m² | - |
| 1777591832 | 20° C | 77% | 1013.6 hPa | 0 mm | - | 221 W/m² | - |
| 1777591528 | 20° C | 77% | 1013.6 hPa | 0 mm | - | 372 W/m² | - |
| 1777591225 | 20° C | 76% | 1013.4 hPa | 0 mm | - | 179 W/m² | - |
| 1777590920 | 20° C | 76% | 1013.5 hPa | 0 mm | - | 240 W/m² | - |
| 1777590615 | 20° C | 75% | 1013.6 hPa | 0 mm | - | 472 W/m² | - |
| 1777590312 | 20° C | 76% | 1013.5 hPa | 0 mm | - | 312 W/m² | - |
| 1777590010 | 20° C | 75% | 1013.8 hPa | 0 mm | - | 449 W/m² | - |
| 1777589705 | 20° C | 75% | 1013.6 hPa | 0 mm | - | 381 W/m² | - |
| 1777589404 | 18.33° C | 81% | 1013.6 hPa | 0 mm | - | 226 W/m² | - |
* Rain latest hour (hover to see other rain measurements)
** Current wind speed in m/s (hover to see current wind gust speed)